Tucumcari ASC

2021-10-22 03:10:00

  • imperial
Date Time Air Temperature Relative Humidity Dewpoint Windchill Heat Index Wind Speed Wind Dir. Rain Solar Radiation Soil Temperature
2m 2m 3m 3m 10cm
US/Mountain F % F F F MPH deg in MJ/m^2 F
max avg avg
2021-10-21 03:20:00 42.3 58.8 28.9 42.3 42.3 1.9 1.9 0.9 311.7 321.3 0.00 0.0000000 55.9
2021-10-21 03:25:00 42.9 56.9 28.7 41.3 42.9 3.3 3.3 2.6 317.4 319.8 0.00 0.0000000 55.8
2021-10-21 03:30:00 42.9 56.9 28.7 40.0 42.9 4.9 4.9 3.9 327.5 326.6 0.00 0.0000000 55.7
2021-10-21 03:35:00 43.2 56.2 28.6 41.8 43.2 3.1 5.3 4.3 330.0 339.5 0.00 0.0000000 55.6
2021-10-21 03:40:00 41.5 60.5 28.8 39.5 41.5 3.5 4.6 3.7 349.0 335.7 0.00 0.0000000 55.5
2021-10-21 03:45:00 42.4 58.1 28.7 42.4 42.4 3.0 3.7 3.0 349.8 352.4 0.00 0.0000000 55.4
2021-10-21 03:50:00 42.2 58.7 28.8 40.5 42.2 3.3 3.7 2.9 8.7 359.9 0.00 0.0000000 55.3
2021-10-21 03:55:00 42.7 57.4 28.7 40.7 42.7 3.7 4.2 3.4 0.6 1.5 0.00 0.0000000 55.3
2021-10-21 04:00:00 43.3 55.8 28.5 41.4 43.3 3.7 4.9 4.0 349.8 346.0 0.00 0.0000000 55.2
2021-10-21 04:05:00 43.4 55.6 28.6 42.1 43.4 3.1 4.4 3.8 346.2 350.7 0.00 0.0000000 55.1
2021-10-21 04:10:00 43.2 56.1 28.5 43.2 43.2 0.0 3.7 2.1 332.4 334.4 0.00 0.0000000 55.0
2021-10-21 04:15:00 39.0 66.4 28.7 39.0 39.0 2.6 4.2 3.0 215.5 190.4 0.00 0.0000000 55.0
2021-10-21 04:20:00 37.3 70.1 28.4 37.3 37.3 0.0 2.1 0.4 37.9 176.8 0.00 0.0000000 54.9
2021-10-21 04:25:00 37.0 72.5 29.0 37.0 37.0 1.5 1.5 0.6 279.0 278.7 0.00 0.0000000 54.8
2021-10-21 04:30:00 38.5 68.4 29.0 38.5 38.5 1.7 2.8 2.2 301.1 323.2 0.00 0.0000000 54.8
2021-10-21 04:35:00 40.0 64.1 28.8 40.0 40.0 2.2 2.2 1.6 326.1 313.3 0.00 0.0000000 54.7
2021-10-21 04:40:00 40.5 62.4 28.6 37.3 40.5 4.6 4.9 3.6 323.7 327.6 0.00 0.0000000 54.6
2021-10-21 04:45:00 40.7 62.1 28.8 39.0 40.7 3.1 5.1 4.2 320.4 325.3 0.00 0.0000000 54.5
2021-10-21 04:50:00 40.8 61.8 28.7 38.7 40.8 3.5 3.8 3.4 313.2 315.6 0.00 0.0000000 54.5
2021-10-21 04:55:00 40.7 62.0 28.7 38.4 40.7 3.7 3.8 3.6 316.2 317.0 0.00 0.0000000 54.4
2021-10-21 05:00:00 41.0 61.5 28.8 37.9 41.0 4.7 5.1 4.5 336.5 329.2 0.00 0.0000000 54.3
2021-10-21 05:05:00 40.7 62.1 28.7 38.1 40.7 4.0 4.7 4.1 332.4 338.9 0.00 0.0000000 54.3
2021-10-21 05:10:00 39.5 64.6 28.5 36.2 39.5 4.6 5.3 4.6 340.4 327.7 0.00 0.0000000 54.2
2021-10-21 05:15:00 39.2 65.5 28.6 35.3 39.2 5.3 5.5 4.8 343.8 330.1 0.00 0.0000000 54.1
2021-10-21 05:20:00 38.6 67.1 28.7 34.8 38.6 5.1 6.0 5.4 332.9 328.9 0.00 0.0000000 54.1
2021-10-21 05:25:00 38.7 67.0 28.7 35.0 38.7 4.9 5.6 5.1 313.7 328.1 0.00 0.0000000 54.0
2021-10-21 05:30:00 38.0 68.7 28.6 33.5 38.0 5.8 6.5 5.5 319.4 328.2 0.00 0.0000000 53.9
2021-10-21 05:35:00 37.7 69.7 28.7 33.4 37.7 5.5 6.9 5.9 327.8 325.0 0.00 0.0000000 53.9
2021-10-21 05:40:00 37.6 69.5 28.6 34.2 37.6 4.4 5.8 5.1 327.7 325.3 0.00 0.0000000 53.8
2021-10-21 05:45:00 37.6 69.1 28.4 37.6 37.6 1.5 4.9 3.3 247.0 312.7 0.00 0.0000000 53.7
2021-10-21 05:50:00 36.7 72.2 28.6 36.7 36.7 3.0 3.7 2.8 208.0 212.0 0.00 0.0000000 53.7
2021-10-21 05:55:00 36.7 71.8 28.4 36.7 36.7 2.1 3.0 2.5 162.1 179.2 0.00 0.0000000 53.6
2021-10-21 06:00:00 36.0 73.3 28.3 36.0 36.0 1.3 1.9 1.5 139.5 139.5 0.00 0.0000000 53.5
2021-10-21 06:05:00 35.7 74.5 28.4 35.7 35.7 1.2 1.7 1.0 148.1 136.8 0.00 0.0000000 53.5
2021-10-21 06:10:00 35.7 74.6 28.5 35.7 35.7 2.1 3.0 1.7 56.5 77.1 0.00 0.0000000 53.4
2021-10-21 06:15:00 36.3 73.7 28.7 36.3 36.3 1.5 2.6 1.9 142.2 97.0 0.00 0.0000000 53.3
2021-10-21 06:20:00 37.5 70.3 28.7 37.5 37.5 1.9 2.1 1.8 143.6 154.8 0.00 0.0000000 53.2
2021-10-21 06:25:00 38.1 68.3 28.6 38.1 38.1 0.0 1.9 0.7 287.4 145.5 0.00 0.0000000 53.2
2021-10-21 06:30:00 39.1 65.8 28.6 39.1 39.1 1.9 1.9 1.2 268.2 270.8 0.00 0.0000000 53.1
2021-10-21 06:35:00 39.4 64.5 28.5 39.4 39.4 1.3 1.9 1.6 289.7 262.3 0.00 0.0000000 53.0
2021-10-21 06:40:00 40.0 63.0 28.4 40.0 40.0 1.9 2.1 1.7 319.3 300.5 0.00 0.0000000 53.0
2021-10-21 06:45:00 40.3 62.3 28.4 38.5 40.3 3.1 3.1 2.6 346.3 331.3 0.00 0.0000000 52.9
2021-10-21 06:50:00 40.5 62.3 28.6 40.5 40.5 2.8 3.7 3.2 0.0 343.8 0.00 0.0000000 52.8
2021-10-21 06:55:00 39.2 64.4 28.2 39.2 39.2 0.0 2.8 1.6 303.7 10.0 0.00 0.0000000 52.8
2021-10-21 07:00:00 39.4 64.5 28.4 35.9 39.4 4.7 4.7 3.0 311.2 304.3 0.00 0.0000000 52.7
2021-10-21 07:05:00 39.0 65.7 28.5 36.7 39.0 3.5 4.7 4.4 320.4 317.8 0.00 0.0001865 52.6
2021-10-21 07:10:00 39.6 64.2 28.5 39.6 39.6 2.4 3.7 3.1 312.8 327.3 0.00 0.0011479 52.5
2021-10-21 07:15:00 41.0 60.6 28.4 39.3 41.0 3.1 3.1 2.9 300.9 305.5 0.00 0.0054046 52.5
2021-10-21 07:20:00 41.5 58.5 28.0 38.8 41.5 4.2 4.4 3.8 318.5 313.5 0.00 0.0102008 52.4
2021-10-21 07:25:00 41.3 58.7 28.0 39.3 41.3 3.5 4.4 3.7 320.8 318.9 0.00 0.0146608 52.3
2021-10-21 07:30:00 41.2 58.8 27.9 39.2 41.2 3.5 4.0 3.6 320.0 326.7 0.00 0.0174926 52.3
2021-10-21 07:35:00 41.3 59.2 28.1 39.7 41.3 3.1 3.7 2.9 327.8 335.7 0.00 0.0228253 52.2
2021-10-21 07:40:00 41.5 59.2 28.3 41.5 41.5 1.7 4.0 2.7 342.9 335.2 0.00 0.0273595 52.2
2021-10-21 07:45:00 42.6 58.1 28.9 42.6 42.6 0.0 2.1 0.9 45.8 6.7 0.00 0.0268193 52.1
2021-10-21 07:50:00 43.2 56.6 28.8 43.2 43.2 0.8 1.0 0.3 303.3 276.1 0.00 0.0315921 52.1
2021-10-21 07:55:00 43.5 55.2 28.5 43.5 43.5 0.0 1.0 0.3 2.5 304.0 0.00 0.0286584 52.1
2021-10-21 08:00:00 43.9 53.8 28.2 43.9 43.9 0.0 0.0 0.0 255.9 0.0 0.00 0.0300985 52.1
2021-10-21 08:05:00 44.1 54.1 28.6 44.1 44.1 1.7 1.9 0.2 308.9 310.7 0.00 0.0430075 52.1
2021-10-21 08:10:00 43.9 55.4 28.9 43.9 43.9 3.0 3.3 2.6 286.7 288.5 0.00 0.0525936 52.1
2021-10-21 08:15:00 44.5 54.7 29.2 44.5 44.5 3.0 3.3 2.6 287.6 293.3 0.00 0.0568737 52.2
2021-10-21 08:20:00 45.2 53.2 29.2 43.6 45.2 3.7 4.0 3.0 309.0 299.6 0.00 0.0608197 52.2
2021-10-21 08:25:00 46.1 52.7 29.8 46.1 46.1 3.0 3.1 2.1 298.7 298.3 0.00 0.0652618 52.2
2021-10-21 08:30:00 46.2 53.3 30.1 44.5 46.2 3.8 4.6 3.3 311.9 310.0 0.00 0.0695173 52.3
2021-10-21 08:35:00 46.2 53.2 30.1 43.5 46.2 5.5 5.5 4.4 306.9 307.3 0.00 0.0741002 52.4
2021-10-21 08:40:00 46.6 52.9 30.3 46.6 46.6 2.2 5.6 4.0 307.1 302.5 0.00 0.0786543 52.4
2021-10-21 08:45:00 47.6 51.5 30.6 45.5 47.6 4.7 4.9 3.7 299.2 305.0 0.00 0.0831159 52.5
2021-10-21 08:50:00 48.2 50.0 30.4 46.3 48.2 4.6 5.5 4.4 315.7 325.0 0.00 0.0877094 52.6
2021-10-21 08:55:00 49.0 48.2 30.2 46.9 49.0 5.1 6.0 4.1 331.4 325.3 0.00 0.0921565 52.7
2021-10-21 09:00:00 49.2 48.6 30.7 48.5 49.2 3.3 6.2 4.7 4.1 327.3 0.00 0.0965941 52.7
2021-10-21 09:05:00 50.4 46.3 30.5 50.4 50.4 4.9 5.5 4.2 339.0 334.7 0.00 0.1011041 52.8
2021-10-21 09:10:00 51.0 45.0 30.4 51.0 51.0 4.0 6.3 4.5 349.5 347.5 0.00 0.1054706 52.9
2021-10-21 09:15:00 52.0 43.0 30.1 52.0 52.0 5.5 5.5 3.5 311.7 327.4 0.00 0.1097312 53.0
2021-10-21 09:20:00 52.1 42.9 30.2 52.1 52.1 4.4 6.0 4.3 317.6 325.3 0.00 0.1139676 53.0
2021-10-21 09:25:00 52.6 42.7 30.5 52.6 52.6 3.0 5.5 4.1 2.6 322.3 0.00 0.1182062 53.1
2021-10-21 09:30:00 52.9 41.2 30.0 52.9 52.9 3.5 5.6 4.0 335.3 320.4 0.00 0.1221203 53.2
2021-10-21 09:35:00 53.4 40.9 30.2 53.4 53.4 2.2 4.6 2.9 63.0 336.0 0.00 0.1258988 53.3
2021-10-21 09:40:00 54.4 39.4 30.2 54.4 54.4 1.7 3.8 2.6 27.2 347.4 0.00 0.1299893 53.3
2021-10-21 09:45:00 55.6 38.2 30.5 55.6 55.6 3.1 4.2 2.3 0.8 325.0 0.00 0.1341937 53.4
2021-10-21 09:50:00 55.9 37.3 30.2 55.9 55.9 4.7 5.1 3.6 17.4 16.1 0.00 0.1381584 53.4
2021-10-21 09:55:00 56.5 36.2 30.0 56.5 56.5 4.7 4.7 3.1 335.9 8.2 0.00 0.1424872 53.5
2021-10-21 10:00:00 56.6 36.2 30.1 56.6 56.6 5.3 5.3 2.8 330.8 322.7 0.00 0.1459818 53.6
2021-10-21 10:05:00 57.1 35.4 29.9 57.1 57.1 4.4 4.4 3.2 15.4 2.2 0.00 0.1495880 53.6
2021-10-21 10:10:00 57.6 34.2 29.6 57.6 57.6 2.4 4.2 2.4 229.6 296.7 0.00 0.1536426 53.8
2021-10-21 10:15:00 57.8 33.7 29.4 57.8 57.8 3.7 4.4 3.0 301.3 285.2 0.00 0.1572456 54.0
2021-10-21 10:20:00 58.1 33.9 29.8 58.1 58.1 4.2 4.4 2.9 316.0 334.1 0.00 0.1604661 54.3
2021-10-21 10:25:00 58.7 33.3 29.9 58.7 58.7 2.1 4.2 2.5 296.2 320.4 0.00 0.1640801 54.6
2021-10-21 10:30:00 58.9 32.4 29.4 58.9 58.9 1.5 3.8 2.6 217.7 201.9 0.00 0.1673285 54.9
2021-10-21 10:35:00 59.8 31.6 29.5 59.8 59.8 1.0 4.2 2.7 312.3 191.0 0.00 0.1709621 55.2
2021-10-21 10:40:00 60.0 30.8 29.0 60.0 60.0 3.5 3.8 2.3 187.6 250.2 0.00 0.1744043 55.5
2021-10-21 10:45:00 60.5 30.5 29.4 60.5 60.5 3.5 3.7 2.2 200.7 209.1 0.00 0.1767220 55.9
2021-10-21 10:50:00 61.2 29.4 29.0 61.2 61.2 3.1 4.6 2.7 280.4 221.8 0.00 0.1805939 56.3
2021-10-21 10:55:00 60.5 28.9 28.1 60.5 60.5 3.5 4.2 3.0 296.0 313.3 0.00 0.1825048 56.6
2021-10-21 11:00:00 60.7 28.7 28.0 60.7 60.7 2.2 5.6 3.2 131.0 222.6 0.00 0.1851459 57.0
2021-10-21 11:05:00 61.8 27.5 27.8 61.8 61.8 5.8 5.8 3.1 235.4 192.7 0.00 0.1880202 57.4
2021-10-21 11:10:00 61.8 27.4 27.8 61.8 61.8 1.5 6.7 4.2 149.8 223.7 0.00 0.1912622 57.8
2021-10-21 11:15:00 62.2 26.4 27.3 62.2 62.2 5.1 6.2 3.4 277.8 253.5 0.00 0.1934327 58.2
2021-10-21 11:20:00 62.6 28.1 29.1 62.6 62.6 6.5 9.0 4.5 308.3 249.9 0.00 0.1957714 58.6
2021-10-21 11:25:00 62.0 28.9 29.3 62.0 62.0 6.3 8.5 5.7 292.3 309.2 0.00 0.1980498 58.9
2021-10-21 11:30:00 61.8 29.7 29.8 61.8 61.8 6.2 6.7 5.1 308.6 305.3 0.00 0.1998344 59.3
2021-10-21 11:35:00 62.8 27.7 28.9 62.8 62.8 4.4 6.5 3.9 301.0 349.6 0.00 0.2014342 59.7
2021-10-21 11:40:00 63.2 27.1 28.8 63.2 63.2 3.8 6.0 3.8 309.4 330.5 0.00 0.2029484 60.0
2021-10-21 11:45:00 64.2 27.0 29.5 64.2 64.2 3.3 5.3 3.9 227.8 292.9 0.00 0.2048344 60.4
2021-10-21 11:50:00 63.8 27.1 29.2 63.8 63.8 2.6 5.5 3.3 49.2 351.4 0.00 0.2061415 60.7
2021-10-21 11:55:00 64.4 26.8 29.4 64.4 64.4 3.7 7.2 4.5 313.6 296.1 0.00 0.2075153 61.1
2021-10-21 12:00:00 64.1 26.8 29.3 64.1 64.1 3.3 7.1 4.5 48.6 336.5 0.00 0.2076761 61.4
2021-10-21 12:05:00 64.9 26.2 29.3 64.9 64.9 5.8 6.7 4.5 336.9 22.6 0.00 0.2089641 61.8
2021-10-21 12:10:00 64.8 25.4 28.5 64.8 64.8 7.2 7.2 4.5 257.4 317.4 0.00 0.2096011 62.1
2021-10-21 12:15:00 66.1 25.6 29.8 66.1 66.1 4.2 6.7 3.7 314.2 323.7 0.00 0.2109378 62.5
2021-10-21 12:20:00 66.1 24.1 28.3 66.1 66.1 6.3 7.6 4.4 329.7 283.3 0.00 0.2116777 62.8
2021-10-21 12:25:00 65.6 24.4 28.2 65.6 65.6 7.4 8.3 6.5 316.7 297.8 0.00 0.2125645 63.1
2021-10-21 12:30:00 65.9 24.6 28.7 65.9 65.9 4.6 6.9 5.0 336.7 320.2 0.00 0.2127630 63.4
2021-10-21 12:35:00 66.8 23.7 28.5 66.8 66.8 6.9 7.1 5.4 328.2 311.4 0.00 0.2136182 63.7
2021-10-21 12:40:00 66.5 23.7 28.3 66.5 66.5 3.3 8.8 4.8 40.6 325.8 0.00 0.2130066 64.0
2021-10-21 12:45:00 67.5 22.2 27.6 67.5 67.5 8.0 8.3 5.3 299.1 318.9 0.00 0.2132190 64.3
2021-10-21 12:50:00 67.6 22.1 27.4 67.6 67.6 5.1 8.7 5.7 266.7 290.6 0.00 0.2128435 64.7
2021-10-21 12:55:00 68.3 22.0 27.9 68.3 68.3 2.8 5.8 4.1 308.9 318.1 0.00 0.2121767 65.0
2021-10-21 13:00:00 68.1 21.6 27.4 68.1 68.1 4.7 6.3 4.8 332.5 341.4 0.00 0.2115677 65.2
2021-10-21 13:05:00 68.7 21.8 28.1 68.7 68.7 1.9 4.2 2.5 315.2 339.2 0.00 0.2096943 65.5
2021-10-21 13:10:00 69.5 21.2 28.1 69.5 69.5 1.9 6.9 4.2 125.0 16.1 0.00 0.2090424 65.8
2021-10-21 13:15:00 69.2 20.8 27.4 69.2 69.2 3.5 4.6 3.4 220.0 42.8 0.00 0.2077161 66.1
2021-10-21 13:20:00 69.4 20.8 27.5 69.4 69.4 1.7 6.5 3.7 112.0 19.7 0.00 0.2065417 66.4
2021-10-21 13:25:00 70.6 20.6 28.3 70.6 70.6 5.1 5.1 3.0 42.3 37.1 0.00 0.2067800 66.7
2021-10-21 13:30:00 70.3 20.7 28.1 70.3 70.3 6.0 7.1 4.5 5.6 25.2 0.00 0.2045347 66.9
2021-10-21 13:35:00 70.8 19.7 27.3 70.8 70.8 1.5 7.4 4.2 179.5 34.4 0.00 0.2027621 67.2
2021-10-21 13:40:00 71.3 19.6 27.7 71.3 71.3 4.9 5.1 3.4 35.7 45.5 0.00 0.2014252 67.4
2021-10-21 13:45:00 71.7 18.3 26.3 71.7 71.7 3.8 6.5 3.3 301.0 21.2 0.00 0.1989157 67.7
2021-10-21 13:50:00 72.6 18.1 26.8 72.6 72.6 4.6 5.5 3.5 259.3 327.2 0.00 0.1977715 67.9
2021-10-21 13:55:00 73.1 18.6 27.8 73.1 73.1 3.5 5.6 3.5 16.3 307.3 0.00 0.1957020 68.2
2021-10-21 14:00:00 72.6 17.6 26.2 72.6 72.6 4.0 8.8 4.7 307.7 350.6 0.00 0.1929654 68.4
2021-10-21 14:05:00 73.5 17.2 26.3 73.5 73.5 2.1 5.8 3.2 276.2 350.3 0.00 0.1912645 68.6
2021-10-21 14:10:00 72.7 17.9 26.6 72.7 72.7 3.1 5.8 4.1 207.5 277.0 0.00 0.1887658 68.8
2021-10-21 14:15:00 72.9 17.5 26.2 72.9 72.9 4.2 6.3 3.9 2.2 348.7 0.00 0.1859760 69.0
2021-10-21 14:20:00 74.2 17.4 27.2 74.2 74.2 6.2 7.4 3.7 34.9 43.1 0.00 0.1839435 69.3
2021-10-21 14:25:00 72.7 17.6 26.1 72.7 72.7 2.4 7.2 5.2 297.2 323.6 0.00 0.1808268 69.5
2021-10-21 14:30:00 73.6 16.9 25.9 73.6 73.6 1.2 6.5 4.1 298.6 338.1 0.00 0.1783311 69.7
2021-10-21 14:35:00 73.5 16.9 25.8 73.5 73.5 1.7 4.6 2.4 138.4 114.4 0.00 0.1739029 69.9
2021-10-21 14:40:00 74.3 16.8 26.4 74.3 74.3 7.1 7.1 3.7 316.8 353.3 0.00 0.1718529 70.1
2021-10-21 14:45:00 74.1 16.9 26.4 74.1 74.1 4.9 6.7 4.3 274.7 292.1 0.00 0.1597610 70.3
2021-10-21 14:50:00 73.7 16.3 25.2 73.7 73.7 5.3 6.9 5.4 339.9 325.2 0.00 0.1659128 70.5
2021-10-21 14:55:00 73.9 16.5 25.6 73.9 73.9 4.6 7.2 5.1 21.8 342.9 0.00 0.1654268 70.6
2021-10-21 15:00:00 74.7 16.2 25.7 74.7 74.7 6.2 6.7 4.2 23.8 356.5 0.00 0.1610685 70.8
2021-10-21 15:05:00 75.0 15.5 25.0 75.0 75.0 0.0 4.9 2.9 275.9 343.7 0.00 0.1555436 71.0
2021-10-21 15:10:00 75.9 15.3 25.4 75.9 75.9 6.7 6.7 3.1 311.2 358.4 0.00 0.1511522 71.1
2021-10-21 15:15:00 75.5 16.3 26.5 75.5 75.5 1.0 6.5 3.0 6.6 278.3 0.00 0.1486714 71.2
2021-10-21 15:20:00 76.0 15.5 25.7 76.0 76.0 6.2 6.2 3.1 304.9 26.1 0.00 0.1427176 71.4
2021-10-21 15:25:00 75.8 15.0 24.8 75.8 75.8 4.6 6.0 3.7 17.0 327.0 0.00 0.1244678 71.5
2021-10-21 15:30:00 75.0 15.3 24.7 75.0 75.0 2.4 4.6 2.8 29.9 63.1 0.00 0.0932445 71.6
2021-10-21 15:35:00 75.7 14.7 24.2 75.7 75.7 6.9 7.1 4.9 3.0 343.4 0.00 0.1340703 71.7
2021-10-21 15:40:00 76.4 14.0 23.7 76.4 76.4 7.1 7.8 4.1 11.0 341.0 0.00 0.1334528 71.8
2021-10-21 15:45:00 75.3 14.3 23.4 75.3 75.3 4.4 8.7 5.1 18.0 358.8 0.00 0.1103032 71.9
2021-10-21 15:50:00 75.7 13.3 21.8 75.7 75.7 2.6 6.0 3.5 22.5 7.5 0.00 0.1216218 71.9
2021-10-21 15:55:00 75.7 13.4 22.1 75.7 75.7 2.8 5.1 3.2 77.7 50.7 0.00 0.1164556 72.0
2021-10-21 16:00:00 75.9 13.3 22.0 75.9 75.9 3.1 5.8 3.3 43.8 11.4 0.00 0.1117568 72.0
2021-10-21 16:05:00 76.3 13.4 22.6 76.3 76.3 3.0 5.8 3.4 335.4 6.9 0.00 0.1075983 72.0
2021-10-21 16:10:00 75.7 13.4 22.1 75.7 75.7 5.1 7.4 5.1 37.4 39.1 0.00 0.1037378 72.0
2021-10-21 16:15:00 75.8 13.1 21.6 75.8 75.8 6.3 6.9 4.9 34.8 19.6 0.00 0.0997762 72.0
2021-10-21 16:20:00 75.1 13.7 22.2 75.1 75.1 4.2 6.2 4.5 30.2 42.3 0.00 0.0925967 71.9
2021-10-21 16:25:00 75.6 13.5 22.2 75.6 75.6 2.1 7.4 3.7 58.2 22.5 0.00 0.0832982 71.9
2021-10-21 16:30:00 75.8 13.3 21.9 75.8 75.8 6.0 6.0 3.1 29.8 39.1 0.00 0.0855669 71.9
2021-10-21 16:35:00 75.8 13.7 22.7 75.8 75.8 6.9 8.0 4.6 37.3 28.5 0.00 0.0819683 71.8
2021-10-21 16:40:00 74.8 13.9 22.2 74.8 74.8 6.3 8.8 5.9 60.3 50.0 0.00 0.0713603 71.8
2021-10-21 16:45:00 74.2 14.1 22.0 74.2 74.2 4.6 7.8 6.1 80.9 42.9 0.00 0.0690661 71.7
2021-10-21 16:50:00 74.7 13.5 21.4 74.7 74.7 5.6 7.2 4.7 31.5 40.6 0.00 0.0747873 71.6
2021-10-21 16:55:00 74.3 13.7 21.6 74.3 74.3 7.2 7.2 5.7 43.9 51.7 0.00 0.0712241 71.6
2021-10-21 17:00:00 74.4 13.6 21.3 74.4 74.4 4.7 6.3 4.7 48.7 49.0 0.00 0.0605609 71.5
2021-10-21 17:05:00 73.9 13.0 19.9 73.9 73.9 5.8 7.8 5.6 58.7 50.5 0.00 0.0578840 71.4
2021-10-21 17:10:00 73.9 12.7 19.3 73.9 73.9 5.8 7.8 5.3 52.2 50.8 0.00 0.0543827 71.3
2021-10-21 17:15:00 73.6 12.7 19.1 73.6 73.6 6.7 8.0 6.0 48.6 50.4 0.00 0.0498289 71.3
2021-10-21 17:20:00 73.1 12.9 19.2 73.1 73.1 6.0 7.4 5.8 69.1 53.2 0.00 0.0465588 71.2
2021-10-21 17:25:00 73.1 12.9 19.1 73.1 73.1 3.5 7.1 4.6 59.6 37.2 0.00 0.0428713 71.1
2021-10-21 17:30:00 72.4 13.4 19.5 72.4 72.4 4.0 5.6 3.7 45.5 41.2 0.00 0.0219590 71.0
2021-10-21 17:35:00 70.7 14.9 20.7 70.7 70.7 3.8 4.9 4.3 41.9 49.8 0.00 0.0053895 70.9
2021-10-21 17:40:00 69.3 16.2 21.5 69.3 69.3 4.6 4.7 4.0 43.9 47.3 0.00 0.0058066 70.8
2021-10-21 17:45:00 69.2 17.0 22.5 69.2 69.2 5.5 5.5 4.2 51.2 45.9 0.00 0.0199808 70.7
2021-10-21 17:50:00 68.7 17.5 22.9 68.7 68.7 5.5 6.0 5.4 55.2 47.1 0.00 0.0143562 70.6
2021-10-21 17:55:00 68.1 18.3 23.4 68.1 68.1 4.6 5.5 4.8 57.3 49.4 0.00 0.0074874 70.4
2021-10-21 18:00:00 66.5 19.7 23.7 66.5 66.5 4.0 4.7 4.2 61.1 52.6 0.00 0.0086704 70.3
2021-10-21 18:05:00 66.7 18.7 22.7 66.7 66.7 4.6 5.8 4.6 38.3 44.7 0.00 0.0017624 70.1
2021-10-21 18:10:00 67.1 18.0 22.2 67.1 67.1 7.1 7.6 5.6 58.5 45.5 0.00 0.0000151 69.9
2021-10-21 18:15:00 66.7 18.8 22.9 66.7 66.7 6.2 7.1 6.2 47.1 44.8 0.00 0.0000000 69.7
2021-10-21 18:20:00 66.4 18.5 22.2 66.4 66.4 5.8 7.2 5.4 46.9 43.6 0.00 0.0000000 69.6
2021-10-21 18:25:00 65.4 19.1 22.2 65.4 65.4 6.0 7.1 5.7 54.2 50.4 0.00 0.0000000 69.4
2021-10-21 18:30:00 64.5 19.9 22.4 64.5 64.5 5.1 6.3 5.7 57.8 49.8 0.00 0.0000000 69.2
2021-10-21 18:35:00 63.2 21.1 22.7 63.2 63.2 4.4 5.6 4.3 57.8 60.1 0.00 0.0000000 69.0
2021-10-21 18:40:00 64.1 19.8 21.9 64.1 64.1 5.8 7.1 5.5 45.3 46.4 0.00 0.0000000 68.8
2021-10-21 18:45:00 65.2 18.6 21.4 65.2 65.2 5.6 7.1 5.8 52.0 45.4 0.00 0.0000000 68.7
2021-10-21 18:50:00 65.3 18.6 21.5 65.3 65.3 6.0 7.2 6.3 38.1 47.8 0.00 0.0000000 68.5
2021-10-21 18:55:00 65.5 18.5 21.5 65.5 65.5 4.9 7.6 6.2 60.7 48.9 0.00 0.0000000 68.3
2021-10-21 19:00:00 62.0 22.6 23.3 62.0 62.0 2.8 6.7 3.8 59.0 79.7 0.00 0.0000000 68.1
2021-10-21 19:05:00 63.4 20.2 21.8 63.4 63.4 5.8 7.1 5.7 47.7 46.7 0.00 0.0000000 68.0
2021-10-21 19:10:00 63.6 20.4 22.2 63.6 63.6 4.9 6.9 5.6 56.5 55.4 0.00 0.0000000 67.8
2021-10-21 19:15:00 58.9 26.1 24.2 58.9 58.9 2.8 5.6 3.6 132.6 112.1 0.00 0.0000000 67.6
2021-10-21 19:20:00 58.0 25.9 23.2 58.0 58.0 4.9 5.6 3.5 45.0 69.7 0.00 0.0000000 67.5
2021-10-21 19:25:00 58.7 25.0 22.9 58.7 58.7 3.3 6.0 4.4 102.1 73.4 0.00 0.0000000 67.3
2021-10-21 19:30:00 59.2 24.1 22.5 59.2 59.2 5.5 5.8 4.8 56.4 58.2 0.00 0.0000000 67.1
2021-10-21 19:35:00 59.6 23.6 22.4 59.6 59.6 5.6 6.3 5.4 64.6 62.3 0.00 0.0000000 67.0
2021-10-21 19:40:00 59.4 23.7 22.3 59.4 59.4 4.6 6.2 5.2 87.1 68.1 0.00 0.0000000 66.8
2021-10-21 19:45:00 58.3 25.1 22.7 58.3 58.3 3.7 4.7 3.7 53.2 76.8 0.00 0.0000000 66.7
2021-10-21 19:50:00 57.9 25.2 22.4 57.9 57.9 2.2 4.6 3.1 67.5 72.1 0.00 0.0000000 66.5
2021-10-21 19:55:00 57.6 25.6 22.5 57.6 57.6 3.0 3.3 2.7 77.5 64.6 0.00 0.0000000 66.3
2021-10-21 20:00:00 57.1 25.9 22.4 57.1 57.1 2.8 3.0 2.6 71.1 73.3 0.00 0.0000000 66.2
2021-10-21 20:05:00 57.0 25.8 22.3 57.0 57.0 2.2 3.7 2.8 92.1 74.1 0.00 0.0000000 66.0
2021-10-21 20:10:00 57.2 25.5 22.2 57.2 57.2 2.8 3.3 2.8 64.6 79.2 0.00 0.0000000 65.9
2021-10-21 20:15:00 56.9 26.0 22.3 56.9 56.9 1.7 2.6 1.8 112.9 107.0 0.00 0.0000000 65.7
2021-10-21 20:20:00 56.7 25.8 22.0 56.7 56.7 2.2 2.4 2.0 104.5 95.0 0.00 0.0000000 65.5
2021-10-21 20:25:00 56.5 26.0 22.0 56.5 56.5 2.8 3.7 2.8 108.3 107.4 0.00 0.0000000 65.4
2021-10-21 20:30:00 56.8 25.9 22.1 56.8 56.8 2.4 3.3 2.5 122.8 115.3 0.00 0.0000000 65.2
2021-10-21 20:35:00 56.4 26.6 22.5 56.4 56.4 2.6 3.0 2.4 168.7 142.5 0.00 0.0000000 65.1
2021-10-21 20:40:00 55.4 28.6 23.3 55.4 55.4 1.7 3.1 2.7 170.2 165.3 0.00 0.0000000 64.9
2021-10-21 20:45:00 55.3 28.4 23.1 55.3 55.3 0.0 1.9 1.0 150.6 177.2 0.00 0.0000000 64.8
2021-10-21 20:50:00 55.3 28.4 23.1 55.3 55.3 1.2 1.3 0.7 116.1 127.7 0.00 0.0000000 64.6
2021-10-21 20:55:00 56.1 27.3 22.9 56.1 56.1 1.9 1.9 1.7 127.6 128.8 0.00 0.0000000 64.5
2021-10-21 21:00:00 56.4 27.3 23.1 56.4 56.4 0.0 1.9 1.2 108.7 126.1 0.00 0.0000000 64.3
2021-10-21 21:05:00 56.1 27.5 23.0 56.1 56.1 0.0 0.0 0.0 91.0 0.0 0.00 0.0000000 64.1
2021-10-21 21:10:00 55.9 27.6 22.9 55.9 55.9 0.0 0.0 0.0 38.4 0.0 0.00 0.0000000 64.0
2021-10-21 21:15:00 56.4 27.0 22.8 56.4 56.4 1.9 2.1 1.0 40.9 39.3 0.00 0.0000000 63.8
2021-10-21 21:20:00 56.5 26.7 22.6 56.5 56.5 0.0 1.7 0.7 3.5 27.1 0.00 0.0000000 63.7
2021-10-21 21:25:00 56.9 26.2 22.5 56.9 56.9 0.0 0.0 0.0 307.4 0.0 0.00 0.0000000 63.6
2021-10-21 21:30:00 57.0 26.0 22.4 57.0 57.0 2.2 2.4 1.5 5.8 353.8 0.00 0.0000000 63.4
2021-10-21 21:35:00 57.1 25.5 22.1 57.1 57.1 2.1 2.6 2.2 35.1 23.1 0.00 0.0000000 63.3
2021-10-21 21:40:00 58.1 24.7 22.1 58.1 58.1 2.2 2.6 2.0 36.8 36.8 0.00 0.0000000 63.1
2021-10-21 21:45:00 58.6 24.0 21.9 58.6 58.6 2.6 2.6 2.2 28.7 42.6 0.00 0.0000000 63.0
2021-10-21 21:50:00 58.7 23.8 21.8 58.7 58.7 1.9 3.0 2.5 43.1 28.3 0.00 0.0000000 62.9
2021-10-21 21:55:00 59.1 23.3 21.6 59.1 59.1 1.3 1.9 1.6 54.8 49.5 0.00 0.0000000 62.7
2021-10-21 22:00:00 59.2 23.0 21.3 59.2 59.2 1.7 1.9 1.6 40.9 51.9 0.00 0.0000000 62.6
2021-10-21 22:05:00 59.2 22.9 21.3 59.2 59.2 2.4 2.4 2.2 20.4 33.2 0.00 0.0000000 62.5
2021-10-21 22:10:00 58.2 24.9 22.4 58.2 58.2 2.1 2.6 2.1 347.7 6.1 0.00 0.0000000 62.4
2021-10-21 22:15:00 53.9 30.2 23.3 53.9 53.9 3.7 3.8 3.1 333.7 345.5 0.00 0.0000000 62.2
2021-10-21 22:20:00 56.3 25.9 21.7 56.3 56.3 3.3 3.3 3.0 338.5 337.7 0.00 0.0000000 62.1
2021-10-21 22:25:00 57.1 25.3 21.9 57.1 57.1 3.3 3.8 3.5 0.2 346.5 0.00 0.0000000 62.0
2021-10-21 22:30:00 57.5 25.0 21.9 57.5 57.5 3.1 4.4 3.4 7.5 6.1 0.00 0.0000000 61.9
2021-10-21 22:35:00 56.8 26.1 22.3 56.8 56.8 2.4 3.1 2.5 10.1 10.8 0.00 0.0000000 61.8
2021-10-21 22:40:00 56.5 26.1 22.1 56.5 56.5 3.1 4.7 3.2 342.1 357.3 0.00 0.0000000 61.6
2021-10-21 22:45:00 55.2 28.5 23.0 55.2 55.2 3.0 5.3 4.0 1.3 4.9 0.00 0.0000000 61.5
2021-10-21 22:50:00 55.3 27.6 22.4 55.3 55.3 4.4 4.4 3.1 18.8 6.6 0.00 0.0000000 61.4
2021-10-21 22:55:00 55.3 28.2 22.9 55.3 55.3 5.6 6.2 4.9 10.9 11.5 0.00 0.0000000 61.3
2021-10-21 23:00:00 54.7 30.2 24.0 54.7 54.7 5.1 6.3 4.8 342.5 357.9 0.00 0.0000000 61.2
2021-10-21 23:05:00 53.9 32.8 25.3 53.9 53.9 4.7 5.1 4.6 4.8 352.2 0.00 0.0000000 61.1
2021-10-21 23:10:00 53.4 34.1 25.7 53.4 53.4 5.1 6.5 4.8 336.3 358.1 0.00 0.0000000 61.0
2021-10-21 23:15:00 53.9 35.2 27.1 53.9 53.9 5.3 6.2 4.8 339.0 356.2 0.00 0.0000000 60.9
2021-10-21 23:20:00 53.1 35.7 26.7 53.1 53.1 4.6 6.9 5.2 325.9 335.8 0.00 0.0000000 60.8
2021-10-21 23:25:00 53.0 35.0 26.0 53.0 53.0 4.9 5.5 4.7 337.3 339.6 0.00 0.0000000 60.7
2021-10-21 23:30:00 52.6 35.5 26.1 52.6 52.6 5.6 6.0 5.1 335.2 344.5 0.00 0.0000000 60.6
2021-10-21 23:35:00 51.9 36.8 26.3 51.9 51.9 5.3 7.2 5.4 336.1 340.2 0.00 0.0000000 60.5
2021-10-21 23:40:00 52.0 36.9 26.4 52.0 52.0 4.4 6.9 5.4 347.3 339.7 0.00 0.0000000 60.4
2021-10-21 23:45:00 51.2 38.4 26.7 51.2 51.2 5.3 5.3 4.4 325.6 335.3 0.00 0.0000000 60.4
2021-10-21 23:50:00 50.5 39.8 26.9 50.5 50.5 5.3 5.8 5.3 320.2 328.4 0.00 0.0000000 60.3
2021-10-21 23:55:00 50.3 39.7 26.7 50.3 50.3 5.3 5.8 5.2 307.0 323.1 0.00 0.0000000 60.2
2021-10-22 00:00:00 48.8 41.4 26.3 46.7 48.8 5.1 6.0 5.1 313.4 314.0 0.00 0.0000000 60.1
2021-10-22 00:05:00 47.0 42.7 25.5 44.7 47.0 5.1 5.3 4.7 320.3 309.9 0.00 0.0000000 60.0
2021-10-22 00:10:00 46.3 44.0 25.6 43.4 46.3 5.8 5.8 5.1 303.5 309.9 0.00 0.0000000 59.9
2021-10-22 00:15:00 45.3 45.8 25.6 42.5 45.3 5.3 5.8 5.4 299.1 308.5 0.00 0.0000000 59.9
2021-10-22 00:20:00 45.3 46.3 25.9 42.3 45.3 5.6 6.3 5.7 319.9 309.8 0.00 0.0000000 59.7
2021-10-22 00:25:00 46.2 44.6 25.8 44.3 46.2 4.2 6.0 5.1 347.0 326.0 0.00 0.0000000 59.7
2021-10-22 00:30:00 46.5 44.1 25.8 46.5 46.5 1.5 4.4 2.2 338.3 335.6 0.00 0.0000000 59.6
2021-10-22 00:35:00 46.4 44.3 25.8 46.4 46.4 1.3 1.7 1.2 97.5 5.5 0.00 0.0000000 59.5
2021-10-22 00:40:00 45.3 46.7 26.2 44.1 45.3 3.3 4.2 2.5 50.0 82.5 0.00 0.0000000 59.4
2021-10-22 00:45:00 46.2 45.6 26.4 46.2 46.2 2.2 4.2 3.3 49.7 31.5 0.00 0.0000000 59.3
2021-10-22 00:50:00 45.6 47.8 26.9 45.6 45.6 2.4 2.8 1.8 303.8 48.2 0.00 0.0000000 59.2
2021-10-22 00:55:00 48.5 44.0 27.6 46.9 48.5 4.4 6.0 4.3 9.0 343.1 0.00 0.0000000 59.1
2021-10-22 01:00:00 50.3 41.7 27.9 50.3 50.3 4.9 5.3 4.3 3.4 352.7 0.00 0.0000000 59.0
2021-10-22 01:05:00 50.5 41.5 28.0 50.5 50.5 2.4 4.7 3.5 292.3 337.9 0.00 0.0000000 58.9
2021-10-22 01:10:00 48.8 44.1 27.9 47.6 48.8 3.8 3.8 2.9 344.3 315.4 0.00 0.0000000 58.8
2021-10-22 01:15:00 48.0 45.1 27.7 47.3 48.0 3.1 4.4 3.8 334.5 326.6 0.00 0.0000000 58.7
2021-10-22 01:20:00 48.1 45.0 27.7 47.0 48.1 3.5 4.7 3.5 348.6 339.3 0.00 0.0000000 58.6
2021-10-22 01:25:00 47.6 45.8 27.7 46.8 47.6 3.1 4.7 3.5 326.6 327.7 0.00 0.0000000 58.5
2021-10-22 01:30:00 47.3 46.2 27.7 47.3 47.3 2.4 4.6 2.9 321.7 329.0 0.00 0.0000000 58.4
2021-10-22 01:35:00 47.1 46.3 27.5 47.1 47.1 3.0 3.7 3.1 325.2 319.9 0.00 0.0000000 58.4
2021-10-22 01:40:00 46.7 47.3 27.7 46.7 46.7 2.2 3.1 2.6 325.4 316.1 0.00 0.0000000 58.3
2021-10-22 01:45:00 46.2 47.8 27.5 46.2 46.2 2.8 2.8 1.7 234.0 269.4 0.00 0.0000000 58.2
2021-10-22 01:50:00 45.1 49.1 27.1 45.1 45.1 3.0 4.0 3.2 240.8 228.5 0.00 0.0000000 58.1
2021-10-22 01:55:00 44.6 49.6 26.9 44.6 44.6 1.9 2.6 2.3 307.9 272.9 0.00 0.0000000 58.0
2021-10-22 02:00:00 43.9 50.7 26.8 43.9 43.9 3.0 3.1 2.7 277.8 287.0 0.00 0.0000000 57.9
2021-10-22 02:05:00 44.1 49.6 26.5 44.1 44.1 1.5 3.1 2.7 134.5 229.0 0.00 0.0000000 57.8
2021-10-22 02:10:00 43.4 50.9 26.4 43.4 43.4 1.9 2.4 1.8 48.5 68.9 0.00 0.0000000 57.7
2021-10-22 02:15:00 44.3 49.2 26.4 44.3 44.3 1.7 1.7 1.0 301.8 41.5 0.00 0.0000000 57.6
2021-10-22 02:20:00 45.0 48.1 26.5 42.9 45.0 4.2 4.4 3.5 302.6 314.8 0.00 0.0000000 57.5
2021-10-22 02:25:00 44.5 49.0 26.5 42.3 44.5 4.2 4.2 3.7 270.9 291.6 0.00 0.0000000 57.4
2021-10-22 02:30:00 42.4 53.6 26.7 40.6 42.4 3.5 4.2 3.7 281.7 265.8 0.00 0.0000000 57.3
2021-10-22 02:35:00 42.9 52.8 26.9 41.1 42.9 3.5 3.7 3.2 285.6 281.6 0.00 0.0000000 57.2
2021-10-22 02:40:00 44.3 50.2 27.0 42.1 44.3 4.2 5.3 4.5 304.6 299.2 0.00 0.0000000 57.1
2021-10-22 02:45:00 44.3 49.8 26.7 42.4 44.3 3.8 4.2 3.3 314.4 301.5 0.00 0.0000000 57.0
2021-10-22 02:50:00 44.4 48.7 26.3 43.2 44.4 3.1 4.7 4.1 314.9 324.0 0.00 0.0000000 56.9
2021-10-22 02:55:00 45.2 46.3 25.9 42.5 45.2 5.1 6.3 5.1 326.4 325.7 0.00 0.0000000 56.8
2021-10-22 03:00:00 45.2 45.5 25.4 42.9 45.2 4.6 5.1 4.4 318.0 316.1 0.00 0.0000000 56.8
2021-10-22 03:05:00 45.2 45.2 25.2 42.9 45.2 4.6 5.1 4.1 310.6 316.7 0.00 0.0000000 56.7
2021-10-22 03:10:00 45.2 45.2 25.3 45.2 45.2 2.6 4.6 3.1 304.2 320.7 0.00 0.0000000 56.6

Data is courtesy of the NM Climate Center. DO NOT USE IN LEGAL PROCEEDINGS.